createdAt,value
2022-08-14T00:05:37.181Z,8.07
2022-08-14T00:12:41.995Z,7.18
2022-08-14T00:19:43.627Z,7.15
2022-08-14T00:26:47.862Z,6.82
2022-08-14T00:33:54.444Z,7.03
2022-08-14T00:41:00.661Z,7.65
2022-08-14T00:48:02.304Z,7.72
2022-08-14T00:55:05.832Z,7.45
2022-08-14T01:02:09.887Z,7.85
2022-08-14T01:09:12.871Z,10.00
2022-08-14T01:16:17.042Z,8.30
2022-08-14T01:23:24.065Z,7.72
2022-08-14T01:30:43.509Z,8.25
2022-08-14T01:37:54.690Z,8.30
2022-08-14T01:44:58.482Z,7.68
2022-08-14T01:52:00.117Z,8.77
2022-08-14T01:59:01.816Z,8.88
2022-08-14T02:06:32.261Z,8.32
2022-08-14T02:13:25.118Z,7.60
2022-08-14T02:20:29.341Z,7.97
2022-08-14T02:28:24.171Z,8.75
2022-08-14T02:34:53.528Z,7.97
2022-08-14T02:41:58.127Z,8.52
2022-08-14T02:49:04.190Z,8.52
2022-08-14T02:56:30.662Z,9.23
2022-08-14T03:03:31.710Z,7.82
2022-08-14T03:10:34.521Z,8.95
2022-08-14T03:17:40.924Z,8.30
2022-08-14T03:24:58.228Z,9.02
2022-08-14T03:31:59.954Z,8.90
2022-08-14T03:39:15.590Z,9.00
2022-08-14T03:46:52.216Z,9.10
2022-08-14T03:53:54.724Z,9.30
2022-08-14T04:00:56.325Z,9.85
2022-08-14T04:08:08.222Z,11.32
2022-08-14T04:15:21.205Z,8.43
2022-08-14T04:22:25.298Z,10.40
2022-08-14T04:29:26.950Z,10.10
2022-08-14T04:36:28.566Z,9.40
2022-08-14T04:43:38.614Z,10.00
2022-08-14T04:50:53.818Z,8.88
2022-08-14T04:57:56.856Z,11.00
2022-08-14T05:05:00.512Z,9.75
2022-08-14T05:13:13.044Z,9.18
2022-08-14T05:19:29.184Z,9.20
2022-08-14T05:26:31.483Z,10.05
2022-08-14T05:33:34.584Z,10.75
2022-08-14T05:40:36.730Z,11.57
2022-08-14T05:47:39.965Z,11.35
2022-08-14T05:54:42.168Z,12.05
2022-08-14T06:01:46.030Z,8.93
2022-08-14T06:08:48.399Z,11.05
2022-08-14T06:15:51.095Z,9.50
2022-08-14T06:22:54.830Z,9.95
2022-08-14T06:29:57.983Z,11.35
2022-08-14T06:37:00.005Z,8.80
2022-08-14T06:44:01.660Z,8.23
2022-08-14T06:51:03.937Z,8.63
2022-08-14T06:58:05.883Z,9.23
2022-08-14T07:06:02.172Z,8.55
2022-08-14T07:13:14.104Z,9.25
2022-08-14T07:20:20.416Z,9.60
2022-08-14T07:27:33.409Z,8.88
2022-08-14T07:34:41.311Z,8.48
2022-08-14T07:41:44.574Z,7.57
2022-08-14T07:48:48.379Z,7.82
2022-08-14T07:56:00.540Z,6.78
2022-08-14T08:03:11.179Z,6.80
2022-08-14T08:10:57.232Z,8.77
2022-08-14T08:18:01.255Z,6.45
2022-08-14T08:25:04.333Z,6.57
2022-08-14T08:32:15.317Z,6.63
2022-08-14T08:39:22.160Z,7.05
2022-08-14T08:46:24.662Z,7.38
2022-08-14T08:53:33.731Z,6.35
2022-08-14T09:00:36.627Z,8.25
2022-08-14T09:07:38.363Z,5.35
2022-08-14T09:14:53.143Z,5.40
2022-08-14T09:21:55.075Z,5.68
2022-08-14T09:28:57.185Z,4.88
2022-08-14T09:36:13.688Z,4.53
2022-08-14T09:43:43.429Z,5.00
2022-08-14T09:50:46.153Z,4.85
2022-08-14T09:57:47.830Z,4.88
2022-08-14T10:05:13.156Z,4.80
2022-08-14T10:12:18.892Z,5.00
2022-08-14T10:19:30.568Z,4.57
2022-08-14T10:26:38.068Z,4.85
2022-08-14T10:33:41.441Z,4.43
2022-08-14T10:40:44.556Z,4.63
2022-08-14T10:48:07.911Z,4.38
2022-08-14T10:55:14.959Z,4.53
2022-08-14T11:02:45.152Z,4.75
2022-08-14T11:09:57.346Z,5.30
2022-08-14T11:16:59.449Z,4.82
2022-08-14T11:24:01.564Z,4.70
2022-08-14T11:31:23.699Z,4.85
2022-08-14T11:38:25.839Z,4.75
2022-08-14T11:45:34.287Z,5.18
2022-08-14T11:52:40.216Z,4.57
2022-08-14T11:59:44.449Z,5.10
2022-08-14T12:06:55.927Z,5.20
2022-08-14T12:13:57.623Z,4.82
2022-08-14T12:20:59.927Z,4.68
2022-08-14T12:28:05.853Z,5.20
2022-08-14T12:35:10.658Z,5.47
2022-08-14T12:42:34.303Z,5.72
2022-08-14T12:49:34.335Z,5.68
2022-08-14T12:56:36.046Z,6.10
2022-08-14T13:03:39.447Z,5.85
2022-08-14T13:10:51.141Z,5.53
2022-08-14T13:17:55.715Z,5.43
2022-08-14T13:24:57.595Z,5.03
2022-08-14T13:31:59.246Z,5.68
2022-08-14T13:39:02.206Z,4.60
2022-08-14T13:46:03.872Z,5.05
2022-08-14T13:53:05.944Z,5.43
2022-08-14T14:00:13.308Z,5.38
2022-08-14T14:07:21.387Z,4.55
2022-08-14T14:14:44.617Z,5.50
2022-08-14T14:21:50.602Z,5.47
2022-08-14T14:28:57.142Z,4.83
2022-08-14T14:35:59.184Z,5.38
2022-08-14T14:43:01.270Z,5.72
2022-08-14T14:50:08.868Z,5.38
2022-08-14T14:57:13.846Z,5.70
2022-08-14T15:04:20.988Z,5.05
2022-08-14T15:11:22.861Z,5.05
2022-08-14T15:18:38.435Z,4.80
2022-08-14T15:25:45.538Z,4.95
2022-08-14T15:32:55.412Z,5.13
2022-08-14T15:39:57.254Z,4.63
2022-08-14T15:46:59.718Z,4.90
2022-08-14T15:54:01.456Z,5.15
2022-08-14T16:01:43.589Z,5.68
2022-08-14T16:08:41.917Z,5.57
2022-08-14T16:15:45.405Z,5.70
2022-08-14T16:22:58.295Z,6.40
2022-08-14T16:30:01.298Z,6.95
2022-08-14T16:37:06.236Z,7.43
2022-08-14T16:44:13.834Z,6.40
2022-08-14T16:51:36.473Z,6.15
2022-08-14T16:58:40.877Z,6.22
2022-08-14T17:05:43.792Z,7.65
2022-08-14T17:12:48.822Z,9.57
2022-08-14T17:20:02.081Z,6.65
2022-08-14T17:27:10.760Z,7.78
2022-08-14T17:34:18.708Z,7.13
2022-08-14T17:41:23.958Z,6.95
2022-08-14T17:49:14.088Z,7.13
2022-08-14T17:56:01.635Z,7.30
2022-08-14T18:03:05.296Z,7.38
2022-08-14T18:10:52.118Z,7.75
2022-08-14T18:17:30.577Z,7.25
2022-08-14T18:24:36.589Z,8.50
2022-08-14T18:31:43.939Z,6.78
2022-08-14T18:38:59.926Z,10.75
2022-08-14T18:46:02.317Z,6.82
2022-08-14T18:53:07.551Z,7.55
2022-08-14T19:00:33.940Z,7.18
2022-08-14T19:07:37.002Z,7.60
2022-08-14T19:14:46.351Z,9.93
2022-08-14T19:21:56.097Z,7.15
2022-08-14T19:28:58.470Z,7.35
2022-08-14T19:36:28.868Z,7.40
2022-08-14T19:43:55.042Z,8.05
2022-08-14T19:51:01.504Z,6.88
2022-08-14T19:58:03.812Z,7.38
2022-08-14T20:05:06.268Z,8.75
2022-08-14T20:12:28.954Z,7.80
2022-08-14T20:19:41.753Z,6.93
2022-08-14T20:26:47.146Z,7.13
2022-08-14T20:34:24.862Z,6.68
2022-08-14T20:41:30.024Z,6.68
2022-08-14T20:48:52.673Z,7.22
2022-08-14T20:55:54.608Z,8.50
2022-08-14T21:02:56.929Z,8.57
2022-08-14T21:10:35.358Z,9.13
2022-08-14T21:17:32.213Z,9.40
2022-08-14T21:24:47.380Z,8.30
2022-08-14T21:31:56.062Z,8.70
2022-08-14T21:38:58.960Z,8.90
2022-08-14T21:46:00.905Z,8.52
2022-08-14T21:53:04.045Z,8.63
2022-08-14T22:00:31.592Z,8.98
2022-08-14T22:07:36.705Z,7.43
2022-08-14T22:14:43.773Z,8.40
2022-08-14T22:21:46.678Z,7.85
2022-08-14T22:28:55.755Z,8.07
2022-08-14T22:35:57.536Z,8.27
2022-08-14T22:43:08.279Z,8.50
2022-08-14T22:50:30.630Z,8.32
2022-08-14T22:57:37.612Z,8.65
2022-08-14T23:04:53.991Z,8.40
2022-08-14T23:11:56.859Z,8.60
2022-08-14T23:18:58.494Z,8.13
2022-08-14T23:26:48.412Z,8.65
2022-08-14T23:33:21.761Z,8.52
2022-08-14T23:40:26.395Z,7.85
2022-08-14T23:47:31.233Z,8.60
2022-08-14T23:54:52.828Z,9.10
